Time;durP1;ratioP1;P1;durP2;ratioP2;P2;SDS_P1;SDS_P2;PMS_P1;PMS_P2;Temp;Humidity;BMP_temperature;BMP_pressure;BME280_temperature;BME280_humidity;BME280_pressure;Samples;Min_cycle;Max_cycle;Signal;HPM_P1;HPM_P2
2019/05/05 00:01:23;;;;;;;11.05;8.649999;;;;;;;3.14;78.06934;94653.58;;;;
2019/05/05 00:02:37;;;;;;;11.05;8.649999;;;;;;;3.14;78.06934;94653.58;;;;
2019/05/05 00:03:45;;;;;;;9.950002;8.399999;;;;;;;3.12;77.99219;94661.88;;;;
2019/05/05 00:05:06;;;;;;;9.950002;8.399999;;;;;;;3.12;77.99219;94661.88;;;;
2019/05/05 00:06:08;;;;;;;9.950002;8.399999;;;;;;;3.12;77.99219;94661.88;;;;
2019/05/05 00:07:09;;;;;;;9.950002;8.399999;;;;;;;3.12;77.99219;94661.88;;;;
2019/05/05 00:08:10;;;;;;;9.950002;8.399999;;;;;;;3.12;77.99219;94661.88;;;;
2019/05/05 00:09:12;;;;;;;9.950002;8.399999;;;;;;;3.12;77.99219;94661.88;;;;
2019/05/05 00:10:21;;;;;;;9.950002;8.399999;;;;;;;3.12;77.99219;94661.88;;;;
2019/05/05 00:11:34;;;;;;;9.950002;8.399999;;;;;;;3.12;77.99219;94661.88;;;;
2019/05/05 00:12:50;;;;;;;9.950002;8.399999;;;;;;;3.12;77.99219;94661.88;;;;
2019/05/05 00:13:58;;;;;;;9.950002;8.399999;;;;;;;3.12;77.99219;94661.88;;;;
2019/05/05 00:15:40;;;;;;;9.449999;8.45;;;;;;;3.2;78.32227;94682.61;;;;
2019/05/05 00:16:50;;;;;;;9.449999;8.45;;;;;;;3.2;78.32227;94682.61;;;;
2019/05/05 00:17:51;;;;;;;9.449999;8.45;;;;;;;3.2;78.32227;94682.61;;;;
2019/05/05 00:18:52;;;;;;;9.449999;8.45;;;;;;;3.2;78.32227;94682.61;;;;
2019/05/05 00:19:53;;;;;;;9.449999;8.45;;;;;;;3.2;78.32227;94682.61;;;;
2019/05/05 00:20:55;;;;;;;9.449999;8.45;;;;;;;3.2;78.32227;94682.61;;;;
2019/05/05 00:21:56;;;;;;;9.449999;8.45;;;;;;;3.2;78.32227;94682.61;;;;
2019/05/05 00:22:57;;;;;;;9.449999;8.45;;;;;;;3.2;78.32227;94682.61;;;;
2019/05/05 00:23:58;;;;;;;9.449999;8.45;;;;;;;3.2;78.32227;94682.61;;;;
2019/05/05 00:24:59;;;;;;;11.6;8;;;;;;;3.23;78.32617;94687.53;;;;
2019/05/05 00:26:00;;;;;;;11.6;8;;;;;;;3.23;78.32617;94687.53;;;;
2019/05/05 00:27:01;;;;;;;11.6;8;;;;;;;3.23;78.32617;94687.53;;;;
2019/05/05 00:28:02;;;;;;;11.6;8;;;;;;;3.23;78.32617;94687.53;;;;
2019/05/05 00:29:03;;;;;;;11.6;8;;;;;;;3.23;78.32617;94687.53;;;;
2019/05/05 00:30:05;;;;;;;11.6;8;;;;;;;3.23;78.32617;94687.53;;;;
2019/05/05 00:31:06;;;;;;;11.6;8;;;;;;;3.23;78.32617;94687.53;;;;
2019/05/05 00:32:07;;;;;;;11.6;8;;;;;;;3.23;78.32617;94687.53;;;;
2019/05/05 00:33:08;;;;;;;11.6;8;;;;;;;3.23;78.32617;94687.53;;;;
2019/05/05 00:34:09;;;;;;;11.6;8;;;;;;;3.23;78.32617;94687.53;;;;
2019/05/05 00:35:10;;;;;;;11.6;8;;;;;;;3.23;78.32617;94687.53;;;;
2019/05/05 00:36:11;;;;;;;9.75;8.25;;;;;;;3.32;78.51172;94697.88;;;;
2019/05/05 00:37:12;;;;;;;9.75;8.25;;;;;;;3.32;78.51172;94697.88;;;;
2019/05/05 00:38:13;;;;;;;9.75;8.25;;;;;;;3.32;78.51172;94697.88;;;;
2019/05/05 00:39:15;;;;;;;9.75;8.25;;;;;;;3.32;78.51172;94697.88;;;;
2019/05/05 00:40:16;;;;;;;9.75;8.25;;;;;;;3.32;78.51172;94697.88;;;;
2019/05/05 00:41:17;;;;;;;9.75;8.25;;;;;;;3.32;78.51172;94697.88;;;;
2019/05/05 00:42:18;;;;;;;9.75;8.25;;;;;;;3.32;78.51172;94697.88;;;;
2019/05/05 00:43:19;;;;;;;9.75;8.25;;;;;;;3.32;78.51172;94697.88;;;;
2019/05/05 00:44:20;;;;;;;9.75;8.25;;;;;;;3.32;78.51172;94697.88;;;;
2019/05/05 00:45:21;;;;;;;9.75;8.25;;;;;;;3.32;78.51172;94697.88;;;;
2019/05/05 00:46:46;;;;;;;10.45;8.199999;;;;;;;3.35;78.43262;94700.54;;;;
2019/05/05 00:47:54;;;;;;;10.45;8.199999;;;;;;;3.35;78.43262;94700.54;;;;
2019/05/05 00:48:56;;;;;;;10.45;8.199999;;;;;;;3.35;78.43262;94700.54;;;;
2019/05/05 00:49:57;;;;;;;10.45;8.199999;;;;;;;3.35;78.43262;94700.54;;;;
2019/05/05 00:50:58;;;;;;;10.45;8.199999;;;;;;;3.35;78.43262;94700.54;;;;
2019/05/05 00:51:59;;;;;;;10.45;8.199999;;;;;;;3.35;78.43262;94700.54;;;;
2019/05/05 00:53:01;;;;;;;10.45;8.199999;;;;;;;3.35;78.43262;94700.54;;;;
2019/05/05 00:54:02;;;;;;;10.45;8.199999;;;;;;;3.35;78.43262;94700.54;;;;
2019/05/05 00:55:03;;;;;;;10.45;8.199999;;;;;;;3.35;78.43262;94700.54;;;;
2019/05/05 00:56:04;;;;;;;10.45;8.199999;;;;;;;3.35;78.43262;94700.54;;;;
2019/05/05 00:57:05;;;;;;;10.6;8.05;;;;;;;3.43;78.58496;94698.1;;;;
2019/05/05 00:58:07;;;;;;;10.6;8.05;;;;;;;3.43;78.58496;94698.1;;;;
2019/05/05 00:59:10;;;;;;;10.6;8.05;;;;;;;3.43;78.58496;94698.1;;;;
2019/05/05 01:00:13;;;;;;;10.6;8.05;;;;;;;3.43;78.58496;94698.1;;;;
2019/05/05 01:01:28;;;;;;;10.6;8.05;;;;;;;3.43;78.58496;94698.1;;;;
2019/05/05 01:02:37;;;;;;;10.6;8.05;;;;;;;3.43;78.58496;94698.1;;;;
2019/05/05 01:03:39;;;;;;;10.6;8.05;;;;;;;3.43;78.58496;94698.1;;;;
2019/05/05 01:04:47;;;;;;;10.6;8.05;;;;;;;3.43;78.58496;94698.1;;;;
2019/05/05 01:06:22;;;;;;;10.6;8.05;;;;;;;3.43;78.58496;94698.1;;;;
2019/05/05 01:07:23;;;;;;;9.749999;7.65;;;;;;;3.4;78.5166;94706.48;;;;
2019/05/05 01:08:26;;;;;;;9.749999;7.65;;;;;;;3.4;78.5166;94706.48;;;;
2019/05/05 01:09:29;;;;;;;9.749999;7.65;;;;;;;3.4;78.5166;94706.48;;;;
2019/05/05 01:10:30;;;;;;;9.749999;7.65;;;;;;;3.4;78.5166;94706.48;;;;
2019/05/05 01:11:33;;;;;;;9.749999;7.65;;;;;;;3.4;78.5166;94706.48;;;;
2019/05/05 01:12:34;;;;;;;9.749999;7.65;;;;;;;3.4;78.5166;94706.48;;;;
2019/05/05 01:13:35;;;;;;;9.749999;7.65;;;;;;;3.4;78.5166;94706.48;;;;
2019/05/05 01:14:36;;;;;;;9.749999;7.65;;;;;;;3.4;78.5166;94706.48;;;;
2019/05/05 01:15:37;;;;;;;9.749999;7.65;;;;;;;3.4;78.5166;94706.48;;;;
2019/05/05 01:16:38;;;;;;;9.749999;7.65;;;;;;;3.4;78.5166;94706.48;;;;
2019/05/05 01:17:39;;;;;;;9.749999;7.65;;;;;;;3.4;78.5166;94706.48;;;;
2019/05/05 01:18:41;;;;;;;9.849999;7.4;;;;;;;3.41;78.71582;94719.33;;;;
2019/05/05 01:19:42;;;;;;;9.849999;7.4;;;;;;;3.41;78.71582;94719.33;;;;
2019/05/05 01:20:43;;;;;;;9.849999;7.4;;;;;;;3.41;78.71582;94719.33;;;;
2019/05/05 01:21:45;;;;;;;9.849999;7.4;;;;;;;3.41;78.71582;94719.33;;;;
2019/05/05 01:22:46;;;;;;;9.849999;7.4;;;;;;;3.41;78.71582;94719.33;;;;
2019/05/05 01:23:47;;;;;;;9.849999;7.4;;;;;;;3.41;78.71582;94719.33;;;;
2019/05/05 01:24:48;;;;;;;9.849999;7.4;;;;;;;3.41;78.71582;94719.33;;;;
2019/05/05 01:25:50;;;;;;;9.849999;7.4;;;;;;;3.41;78.71582;94719.33;;;;
2019/05/05 01:26:51;;;;;;;9.849999;7.4;;;;;;;3.41;78.71582;94719.33;;;;
2019/05/05 01:27:52;;;;;;;9.849999;7.4;;;;;;;3.41;78.71582;94719.33;;;;
2019/05/05 01:28:53;;;;;;;12.05;7.849999;;;;;;;3.33;78.84961;94736.86;;;;
2019/05/05 01:29:54;;;;;;;12.05;7.849999;;;;;;;3.33;78.84961;94736.86;;;;
2019/05/05 01:30:58;;;;;;;12.05;7.849999;;;;;;;3.33;78.84961;94736.86;;;;
2019/05/05 01:32:01;;;;;;;12.05;7.849999;;;;;;;3.33;78.84961;94736.86;;;;
2019/05/05 01:33:10;;;;;;;12.05;7.849999;;;;;;;3.33;78.84961;94736.86;;;;
2019/05/05 01:34:18;;;;;;;12.05;7.849999;;;;;;;3.33;78.84961;94736.86;;;;
2019/05/05 01:35:20;;;;;;;12.05;7.849999;;;;;;;3.33;78.84961;94736.86;;;;
2019/05/05 01:36:21;;;;;;;12.05;7.849999;;;;;;;3.33;78.84961;94736.86;;;;
2019/05/05 01:37:27;;;;;;;12.05;7.849999;;;;;;;3.33;78.84961;94736.86;;;;
2019/05/05 01:38:37;;;;;;;12.05;7.849999;;;;;;;3.33;78.84961;94736.86;;;;
2019/05/05 01:39:45;;;;;;;12.95;8.5;;;;;;;3.33;78.91113;94745.81;;;;
2019/05/05 01:40:55;;;;;;;12.95;8.5;;;;;;;3.33;78.91113;94745.81;;;;
2019/05/05 01:42:00;;;;;;;12.95;8.5;;;;;;;3.33;78.91113;94745.81;;;;
2019/05/05 01:43:01;;;;;;;12.95;8.5;;;;;;;3.33;78.91113;94745.81;;;;
2019/05/05 01:44:02;;;;;;;12.95;8.5;;;;;;;3.33;78.91113;94745.81;;;;
2019/05/05 01:45:03;;;;;;;12.95;8.5;;;;;;;3.33;78.91113;94745.81;;;;
2019/05/05 01:46:04;;;;;;;12.95;8.5;;;;;;;3.33;78.91113;94745.81;;;;
2019/05/05 01:47:06;;;;;;;12.95;8.5;;;;;;;3.33;78.91113;94745.81;;;;
2019/05/05 01:48:07;;;;;;;12.95;8.5;;;;;;;3.33;78.91113;94745.81;;;;
2019/05/05 01:49:08;;;;;;;12.95;8.5;;;;;;;3.33;78.91113;94745.81;;;;
2019/05/05 01:50:09;;;;;;;12.85;8.5;;;;;;;3.31;79.28711;94740.66;;;;
2019/05/05 01:51:11;;;;;;;12.85;8.5;;;;;;;3.31;79.28711;94740.66;;;;
2019/05/05 01:52:12;;;;;;;12.85;8.5;;;;;;;3.31;79.28711;94740.66;;;;
2019/05/05 01:53:13;;;;;;;12.85;8.5;;;;;;;3.31;79.28711;94740.66;;;;
2019/05/05 01:54:14;;;;;;;12.85;8.5;;;;;;;3.31;79.28711;94740.66;;;;
2019/05/05 01:55:15;;;;;;;12.85;8.5;;;;;;;3.31;79.28711;94740.66;;;;
2019/05/05 01:56:16;;;;;;;12.85;8.5;;;;;;;3.31;79.28711;94740.66;;;;
2019/05/05 01:57:18;;;;;;;12.85;8.5;;;;;;;3.31;79.28711;94740.66;;;;
2019/05/05 01:58:19;;;;;;;12.85;8.5;;;;;;;3.31;79.28711;94740.66;;;;
2019/05/05 01:59:20;;;;;;;12.85;8.5;;;;;;;3.31;79.28711;94740.66;;;;
2019/05/05 02:00:22;;;;;;;12.85;8.5;;;;;;;3.31;79.28711;94740.66;;;;
2019/05/05 02:01:23;;;;;;;11.5;9.15;;;;;;;3.3;79.31543;94739.95;;;;
2019/05/05 02:02:24;;;;;;;11.5;9.15;;;;;;;3.3;79.31543;94739.95;;;;
2019/05/05 02:03:25;;;;;;;11.5;9.15;;;;;;;3.3;79.31543;94739.95;;;;
2019/05/05 02:04:27;;;;;;;11.5;9.15;;;;;;;3.3;79.31543;94739.95;;;;
2019/05/05 02:05:28;;;;;;;11.5;9.15;;;;;;;3.3;79.31543;94739.95;;;;
2019/05/05 02:06:29;;;;;;;11.5;9.15;;;;;;;3.3;79.31543;94739.95;;;;
2019/05/05 02:07:30;;;;;;;11.5;9.15;;;;;;;3.3;79.31543;94739.95;;;;
2019/05/05 02:08:31;;;;;;;11.5;9.15;;;;;;;3.3;79.31543;94739.95;;;;
2019/05/05 02:09:33;;;;;;;11.5;9.15;;;;;;;3.3;79.31543;94739.95;;;;
2019/05/05 02:10:34;;;;;;;11.5;9.15;;;;;;;3.3;79.31543;94739.95;;;;
2019/05/05 02:11:35;;;;;;;10.95;8.85;;;;;;;3.24;79.27344;94732.75;;;;
2019/05/05 02:12:36;;;;;;;10.95;8.85;;;;;;;3.24;79.27344;94732.75;;;;
2019/05/05 02:13:37;;;;;;;10.95;8.85;;;;;;;3.24;79.27344;94732.75;;;;
2019/05/05 02:14:38;;;;;;;10.95;8.85;;;;;;;3.24;79.27344;94732.75;;;;
2019/05/05 02:15:40;;;;;;;10.95;8.85;;;;;;;3.24;79.27344;94732.75;;;;
2019/05/05 02:16:41;;;;;;;10.95;8.85;;;;;;;3.24;79.27344;94732.75;;;;
2019/05/05 02:17:42;;;;;;;10.95;8.85;;;;;;;3.24;79.27344;94732.75;;;;
2019/05/05 02:18:43;;;;;;;10.95;8.85;;;;;;;3.24;79.27344;94732.75;;;;
2019/05/05 02:19:45;;;;;;;10.95;8.85;;;;;;;3.24;79.27344;94732.75;;;;
2019/05/05 02:20:46;;;;;;;10.95;8.85;;;;;;;3.24;79.27344;94732.75;;;;
2019/05/05 02:21:52;;;;;;;12;9.05;;;;;;;3.22;79.58496;94726.4;;;;
2019/05/05 02:22:53;;;;;;;12;9.05;;;;;;;3.22;79.58496;94726.4;;;;
2019/05/05 02:23:54;;;;;;;12;9.05;;;;;;;3.22;79.58496;94726.4;;;;
2019/05/05 02:24:55;;;;;;;12;9.05;;;;;;;3.22;79.58496;94726.4;;;;
2019/05/05 02:25:56;;;;;;;12;9.05;;;;;;;3.22;79.58496;94726.4;;;;
2019/05/05 02:26:58;;;;;;;12;9.05;;;;;;;3.22;79.58496;94726.4;;;;
2019/05/05 02:27:59;;;;;;;12;9.05;;;;;;;3.22;79.58496;94726.4;;;;
2019/05/05 02:29:06;;;;;;;12;9.05;;;;;;;3.22;79.58496;94726.4;;;;
2019/05/05 02:30:17;;;;;;;12;9.05;;;;;;;3.22;79.58496;94726.4;;;;
2019/05/05 02:31:26;;;;;;;12;9.05;;;;;;;3.22;79.58496;94726.4;;;;
2019/05/05 02:33:03;;;;;;;12.95;9.549999;;;;;;;3.15;79.47852;94733.06;;;;
2019/05/05 02:34:05;;;;;;;12.95;9.549999;;;;;;;3.15;79.47852;94733.06;;;;
2019/05/05 02:35:06;;;;;;;12.95;9.549999;;;;;;;3.15;79.47852;94733.06;;;;
2019/05/05 02:36:08;;;;;;;12.95;9.549999;;;;;;;3.15;79.47852;94733.06;;;;
2019/05/05 02:37:09;;;;;;;12.95;9.549999;;;;;;;3.15;79.47852;94733.06;;;;
2019/05/05 02:38:10;;;;;;;12.95;9.549999;;;;;;;3.15;79.47852;94733.06;;;;
2019/05/05 02:39:11;;;;;;;12.95;9.549999;;;;;;;3.15;79.47852;94733.06;;;;
2019/05/05 02:40:12;;;;;;;12.95;9.549999;;;;;;;3.15;79.47852;94733.06;;;;
2019/05/05 02:41:14;;;;;;;12.95;9.549999;;;;;;;3.15;79.47852;94733.06;;;;
2019/05/05 02:42:15;;;;;;;12.95;9.549999;;;;;;;3.15;79.47852;94733.06;;;;
2019/05/05 02:43:16;;;;;;;13.85;10.05;;;;;;;3.2;79.69727;94735.55;;;;
2019/05/05 02:44:17;;;;;;;13.85;10.05;;;;;;;3.2;79.69727;94735.55;;;;
2019/05/05 02:45:19;;;;;;;13.85;10.05;;;;;;;3.2;79.69727;94735.55;;;;
2019/05/05 02:46:58;;;;;;;13.85;10.05;;;;;;;3.2;79.69727;94735.55;;;;
2019/05/05 02:48:07;;;;;;;13.85;10.05;;;;;;;3.2;79.69727;94735.55;;;;
2019/05/05 02:49:09;;;;;;;13.85;10.05;;;;;;;3.2;79.69727;94735.55;;;;
2019/05/05 02:50:10;;;;;;;13.85;10.05;;;;;;;3.2;79.69727;94735.55;;;;
2019/05/05 02:51:11;;;;;;;13.85;10.05;;;;;;;3.2;79.69727;94735.55;;;;
2019/05/05 02:52:12;;;;;;;13.85;10.05;;;;;;;3.2;79.69727;94735.55;;;;
2019/05/05 02:53:13;;;;;;;13.85;10.05;;;;;;;3.2;79.69727;94735.55;;;;
2019/05/05 02:54:15;;;;;;;12.8;9.650002;;;;;;;3.16;79.76367;94734.72;;;;
2019/05/05 02:55:16;;;;;;;12.8;9.650002;;;;;;;3.16;79.76367;94734.72;;;;
2019/05/05 02:56:20;;;;;;;12.8;9.650002;;;;;;;3.16;79.76367;94734.72;;;;
2019/05/05 02:57:22;;;;;;;12.8;9.650002;;;;;;;3.16;79.76367;94734.72;;;;
2019/05/05 02:58:23;;;;;;;12.8;9.650002;;;;;;;3.16;79.76367;94734.72;;;;
2019/05/05 02:59:30;;;;;;;12.8;9.650002;;;;;;;3.16;79.76367;94734.72;;;;
2019/05/05 03:05:40;;;;;;;12.15;10.75;;;;;;;3.21;79.82422;94753.17;;;;
2019/05/05 03:06:41;;;;;;;12.15;10.75;;;;;;;3.21;79.82422;94753.17;;;;
2019/05/05 03:07:45;;;;;;;12.15;10.75;;;;;;;3.21;79.82422;94753.17;;;;
2019/05/05 03:08:46;;;;;;;12.15;10.75;;;;;;;3.21;79.82422;94753.17;;;;
2019/05/05 03:09:47;;;;;;;12.15;10.75;;;;;;;3.21;79.82422;94753.17;;;;
2019/05/05 03:10:48;;;;;;;12.15;10.75;;;;;;;3.21;79.82422;94753.17;;;;
2019/05/05 03:11:49;;;;;;;12.15;10.75;;;;;;;3.21;79.82422;94753.17;;;;
2019/05/05 03:12:50;;;;;;;12.15;10.75;;;;;;;3.21;79.82422;94753.17;;;;
2019/05/05 03:13:52;;;;;;;12.15;10.75;;;;;;;3.21;79.82422;94753.17;;;;
2019/05/05 03:14:53;;;;;;;13.7;10.25;;;;;;;3.18;79.79883;94770.81;;;;
2019/05/05 03:15:54;;;;;;;13.7;10.25;;;;;;;3.18;79.79883;94770.81;;;;
2019/05/05 03:17:28;;;;;;;13.7;10.25;;;;;;;3.18;79.79883;94770.81;;;;
2019/05/05 03:18:30;;;;;;;13.7;10.25;;;;;;;3.18;79.79883;94770.81;;;;
2019/05/05 03:19:31;;;;;;;13.7;10.25;;;;;;;3.18;79.79883;94770.81;;;;
2019/05/05 03:20:32;;;;;;;13.7;10.25;;;;;;;3.18;79.79883;94770.81;;;;
2019/05/05 03:21:33;;;;;;;13.7;10.25;;;;;;;3.18;79.79883;94770.81;;;;
2019/05/05 03:22:34;;;;;;;13.7;10.25;;;;;;;3.18;79.79883;94770.81;;;;
2019/05/05 03:23:35;;;;;;;13.7;10.25;;;;;;;3.18;79.79883;94770.81;;;;
2019/05/05 03:24:36;;;;;;;13.7;10.25;;;;;;;3.18;79.79883;94770.81;;;;
2019/05/05 03:25:37;;;;;;;10.9;9.500002;;;;;;;3.26;79.85645;94775.13;;;;
2019/05/05 03:26:39;;;;;;;10.9;9.500002;;;;;;;3.26;79.85645;94775.13;;;;
2019/05/05 03:27:40;;;;;;;10.9;9.500002;;;;;;;3.26;79.85645;94775.13;;;;
2019/05/05 03:28:44;;;;;;;10.9;9.500002;;;;;;;3.26;79.85645;94775.13;;;;
2019/05/05 03:29:46;;;;;;;10.9;9.500002;;;;;;;3.26;79.85645;94775.13;;;;
2019/05/05 03:30:47;;;;;;;10.9;9.500002;;;;;;;3.26;79.85645;94775.13;;;;
2019/05/05 03:31:48;;;;;;;10.9;9.500002;;;;;;;3.26;79.85645;94775.13;;;;
2019/05/05 03:32:49;;;;;;;10.9;9.500002;;;;;;;3.26;79.85645;94775.13;;;;
2019/05/05 03:33:50;;;;;;;10.9;9.500002;;;;;;;3.26;79.85645;94775.13;;;;
2019/05/05 03:34:51;;;;;;;10.9;9.500002;;;;;;;3.26;79.85645;94775.13;;;;
2019/05/05 03:35:52;;;;;;;10.9;9.500002;;;;;;;3.26;79.85645;94775.13;;;;
2019/05/05 03:36:53;;;;;;;10.15;8.5;;;;;;;3.24;79.78809;94777.72;;;;
2019/05/05 03:37:54;;;;;;;10.15;8.5;;;;;;;3.24;79.78809;94777.72;;;;
2019/05/05 03:38:55;;;;;;;10.15;8.5;;;;;;;3.24;79.78809;94777.72;;;;
2019/05/05 03:40:04;;;;;;;10.15;8.5;;;;;;;3.24;79.78809;94777.72;;;;
2019/05/05 03:41:09;;;;;;;10.15;8.5;;;;;;;3.24;79.78809;94777.72;;;;
2019/05/05 03:43:19;;;;;;;10.15;8.5;;;;;;;3.24;79.78809;94777.72;;;;
2019/05/05 03:44:30;;;;;;;10.15;8.5;;;;;;;3.24;79.78809;94777.72;;;;
2019/05/05 03:45:38;;;;;;;10.15;8.5;;;;;;;3.24;79.78809;94777.72;;;;
2019/05/05 03:46:39;;;;;;;11.55;9.6;;;;;;;3.21;80.06641;94784.68;;;;
2019/05/05 03:47:40;;;;;;;11.55;9.6;;;;;;;3.21;80.06641;94784.68;;;;
2019/05/05 03:48:41;;;;;;;11.55;9.6;;;;;;;3.21;80.06641;94784.68;;;;
2019/05/05 03:49:42;;;;;;;11.55;9.6;;;;;;;3.21;80.06641;94784.68;;;;
2019/05/05 03:50:43;;;;;;;11.55;9.6;;;;;;;3.21;80.06641;94784.68;;;;
2019/05/05 03:51:45;;;;;;;11.55;9.6;;;;;;;3.21;80.06641;94784.68;;;;
2019/05/05 03:52:46;;;;;;;11.55;9.6;;;;;;;3.21;80.06641;94784.68;;;;
2019/05/05 03:53:47;;;;;;;11.55;9.6;;;;;;;3.21;80.06641;94784.68;;;;
2019/05/05 03:54:48;;;;;;;11.55;9.6;;;;;;;3.21;80.06641;94784.68;;;;
2019/05/05 03:55:49;;;;;;;11.55;9.6;;;;;;;3.21;80.06641;94784.68;;;;
2019/05/05 03:57:06;;;;;;;11.55;9.6;;;;;;;3.21;80.06641;94784.68;;;;
2019/05/05 03:58:07;;;;;;;14.2;10.4;;;;;;;3.14;79.96777;94784.77;;;;
2019/05/05 03:59:08;;;;;;;14.2;10.4;;;;;;;3.14;79.96777;94784.77;;;;
2019/05/05 04:00:09;;;;;;;14.2;10.4;;;;;;;3.14;79.96777;94784.77;;;;
2019/05/05 04:01:10;;;;;;;14.2;10.4;;;;;;;3.14;79.96777;94784.77;;;;
2019/05/05 04:02:53;;;;;;;14.2;10.4;;;;;;;3.14;79.96777;94784.77;;;;
2019/05/05 04:04:20;;;;;;;14.2;10.4;;;;;;;3.14;79.96777;94784.77;;;;
2019/05/05 04:10:29;;;;;;;12.9;10.45;;;;;;;3.17;80.19727;94787.85;;;;
2019/05/05 04:11:30;;;;;;;12.9;10.45;;;;;;;3.17;80.19727;94787.85;;;;
2019/05/05 04:12:31;;;;;;;12.9;10.45;;;;;;;3.17;80.19727;94787.85;;;;
2019/05/05 04:13:32;;;;;;;12.9;10.45;;;;;;;3.17;80.19727;94787.85;;;;
2019/05/05 04:14:34;;;;;;;12.9;10.45;;;;;;;3.17;80.19727;94787.85;;;;
2019/05/05 04:15:36;;;;;;;12.9;10.45;;;;;;;3.17;80.19727;94787.85;;;;
2019/05/05 04:16:42;;;;;;;12.9;10.45;;;;;;;3.17;80.19727;94787.85;;;;
2019/05/05 04:17:50;;;;;;;12.9;10.45;;;;;;;3.17;80.19727;94787.85;;;;
2019/05/05 04:18:55;;;;;;;10.65;8.699999;;;;;;;3.19;80.0625;94791.23;;;;
2019/05/05 04:19:56;;;;;;;10.65;8.699999;;;;;;;3.19;80.0625;94791.23;;;;
2019/05/05 04:20:57;;;;;;;10.65;8.699999;;;;;;;3.19;80.0625;94791.23;;;;
2019/05/05 04:21:59;;;;;;;10.65;8.699999;;;;;;;3.19;80.0625;94791.23;;;;
2019/05/05 04:23:00;;;;;;;10.65;8.699999;;;;;;;3.19;80.0625;94791.23;;;;
2019/05/05 04:24:01;;;;;;;10.65;8.699999;;;;;;;3.19;80.0625;94791.23;;;;
2019/05/05 04:25:02;;;;;;;10.65;8.699999;;;;;;;3.19;80.0625;94791.23;;;;
2019/05/05 04:26:03;;;;;;;10.65;8.699999;;;;;;;3.19;80.0625;94791.23;;;;
2019/05/05 04:27:04;;;;;;;10.65;8.699999;;;;;;;3.19;80.0625;94791.23;;;;
2019/05/05 04:28:05;;;;;;;10.65;8.699999;;;;;;;3.19;80.0625;94791.23;;;;
2019/05/05 04:29:07;;;;;;;11.45;9.65;;;;;;;3.23;80.04883;94811.56;;;;
2019/05/05 04:30:08;;;;;;;11.45;9.65;;;;;;;3.23;80.04883;94811.56;;;;
2019/05/05 04:31:09;;;;;;;11.45;9.65;;;;;;;3.23;80.04883;94811.56;;;;
2019/05/05 04:32:10;;;;;;;11.45;9.65;;;;;;;3.23;80.04883;94811.56;;;;
2019/05/05 04:33:11;;;;;;;11.45;9.65;;;;;;;3.23;80.04883;94811.56;;;;
2019/05/05 04:34:12;;;;;;;11.45;9.65;;;;;;;3.23;80.04883;94811.56;;;;
2019/05/05 04:35:13;;;;;;;11.45;9.65;;;;;;;3.23;80.04883;94811.56;;;;
2019/05/05 04:36:14;;;;;;;11.45;9.65;;;;;;;3.23;80.04883;94811.56;;;;
2019/05/05 04:37:15;;;;;;;11.45;9.65;;;;;;;3.23;80.04883;94811.56;;;;
2019/05/05 04:38:16;;;;;;;11.45;9.65;;;;;;;3.23;80.04883;94811.56;;;;
2019/05/05 04:39:17;;;;;;;11.45;9.65;;;;;;;3.23;80.04883;94811.56;;;;
2019/05/05 04:40:19;;;;;;;10.5;9.4;;;;;;;3.23;79.98535;94820.06;;;;
2019/05/05 04:41:20;;;;;;;10.5;9.4;;;;;;;3.23;79.98535;94820.06;;;;
2019/05/05 04:42:21;;;;;;;10.5;9.4;;;;;;;3.23;79.98535;94820.06;;;;
2019/05/05 04:43:22;;;;;;;10.5;9.4;;;;;;;3.23;79.98535;94820.06;;;;
2019/05/05 04:44:23;;;;;;;10.5;9.4;;;;;;;3.23;79.98535;94820.06;;;;
2019/05/05 04:45:24;;;;;;;10.5;9.4;;;;;;;3.23;79.98535;94820.06;;;;
2019/05/05 04:46:25;;;;;;;10.5;9.4;;;;;;;3.23;79.98535;94820.06;;;;
2019/05/05 04:47:30;;;;;;;10.5;9.4;;;;;;;3.23;79.98535;94820.06;;;;
2019/05/05 04:48:40;;;;;;;10.5;9.4;;;;;;;3.23;79.98535;94820.06;;;;
2019/05/05 04:49:55;;;;;;;10.5;9.4;;;;;;;3.23;79.98535;94820.06;;;;
2019/05/05 04:51:04;;;;;;;12.95;10;;;;;;;3.29;79.97656;94837.82;;;;
2019/05/05 04:52:08;;;;;;;12.95;10;;;;;;;3.29;79.97656;94837.82;;;;
2019/05/05 04:53:12;;;;;;;12.95;10;;;;;;;3.29;79.97656;94837.82;;;;
2019/05/05 04:54:25;;;;;;;12.95;10;;;;;;;3.29;79.97656;94837.82;;;;
2019/05/05 04:55:26;;;;;;;12.95;10;;;;;;;3.29;79.97656;94837.82;;;;
2019/05/05 04:56:27;;;;;;;12.95;10;;;;;;;3.29;79.97656;94837.82;;;;
2019/05/05 04:57:28;;;;;;;12.95;10;;;;;;;3.29;79.97656;94837.82;;;;
2019/05/05 04:58:29;;;;;;;12.95;10;;;;;;;3.29;79.97656;94837.82;;;;
2019/05/05 04:59:31;;;;;;;12.95;10;;;;;;;3.29;79.97656;94837.82;;;;
2019/05/05 05:00:32;;;;;;;12.95;10;;;;;;;3.29;79.97656;94837.82;;;;
2019/05/05 05:01:33;;;;;;;11.35;10.1;;;;;;;3.42;79.93848;94854.78;;;;
2019/05/05 05:02:47;;;;;;;11.35;10.1;;;;;;;3.42;79.93848;94854.78;;;;
2019/05/05 05:03:57;;;;;;;11.35;10.1;;;;;;;3.42;79.93848;94854.78;;;;
2019/05/05 05:05:04;;;;;;;11.35;10.1;;;;;;;3.42;79.93848;94854.78;;;;
2019/05/05 05:06:10;;;;;;;11.35;10.1;;;;;;;3.42;79.93848;94854.78;;;;
2019/05/05 05:07:12;;;;;;;11.35;10.1;;;;;;;3.42;79.93848;94854.78;;;;
2019/05/05 05:08:13;;;;;;;11.35;10.1;;;;;;;3.42;79.93848;94854.78;;;;
2019/05/05 05:09:14;;;;;;;11.35;10.1;;;;;;;3.42;79.93848;94854.78;;;;
2019/05/05 05:10:15;;;;;;;11.35;10.1;;;;;;;3.42;79.93848;94854.78;;;;
2019/05/05 05:11:16;;;;;;;11.35;10.1;;;;;;;3.42;79.93848;94854.78;;;;
2019/05/05 05:12:17;;;;;;;12.6;10.9;;;;;;;3.65;79.90723;94857.89;;;;
2019/05/05 05:13:18;;;;;;;12.6;10.9;;;;;;;3.65;79.90723;94857.89;;;;
2019/05/05 05:14:20;;;;;;;12.6;10.9;;;;;;;3.65;79.90723;94857.89;;;;
2019/05/05 05:15:21;;;;;;;12.6;10.9;;;;;;;3.65;79.90723;94857.89;;;;
2019/05/05 05:16:22;;;;;;;12.6;10.9;;;;;;;3.65;79.90723;94857.89;;;;
2019/05/05 05:17:30;;;;;;;12.6;10.9;;;;;;;3.65;79.90723;94857.89;;;;
2019/05/05 05:18:32;;;;;;;12.6;10.9;;;;;;;3.65;79.90723;94857.89;;;;
2019/05/05 05:19:34;;;;;;;12.6;10.9;;;;;;;3.65;79.90723;94857.89;;;;
2019/05/05 05:20:35;;;;;;;12.6;10.9;;;;;;;3.65;79.90723;94857.89;;;;
2019/05/05 05:21:36;;;;;;;12.6;10.9;;;;;;;3.65;79.90723;94857.89;;;;
2019/05/05 05:22:37;;;;;;;12.75;11.45;;;;;;;3.78;79.625;94850.4;;;;
2019/05/05 05:23:38;;;;;;;12.75;11.45;;;;;;;3.78;79.625;94850.4;;;;
2019/05/05 05:24:39;;;;;;;12.75;11.45;;;;;;;3.78;79.625;94850.4;;;;
2019/05/05 05:25:40;;;;;;;12.75;11.45;;;;;;;3.78;79.625;94850.4;;;;
2019/05/05 05:26:41;;;;;;;12.75;11.45;;;;;;;3.78;79.625;94850.4;;;;
2019/05/05 05:27:42;;;;;;;12.75;11.45;;;;;;;3.78;79.625;94850.4;;;;
2019/05/05 05:28:43;;;;;;;12.75;11.45;;;;;;;3.78;79.625;94850.4;;;;
2019/05/05 05:29:44;;;;;;;12.75;11.45;;;;;;;3.78;79.625;94850.4;;;;
2019/05/05 05:30:45;;;;;;;12.75;11.45;;;;;;;3.78;79.625;94850.4;;;;
2019/05/05 05:31:46;;;;;;;12.75;11.45;;;;;;;3.78;79.625;94850.4;;;;
2019/05/05 05:32:47;;;;;;;13.95;12.1;;;;;;;3.97;79.56641;94853.6;;;;
2019/05/05 05:33:49;;;;;;;13.95;12.1;;;;;;;3.97;79.56641;94853.6;;;;
2019/05/05 05:34:50;;;;;;;13.95;12.1;;;;;;;3.97;79.56641;94853.6;;;;
2019/05/05 05:35:51;;;;;;;13.95;12.1;;;;;;;3.97;79.56641;94853.6;;;;
2019/05/05 05:36:52;;;;;;;13.95;12.1;;;;;;;3.97;79.56641;94853.6;;;;
2019/05/05 05:37:53;;;;;;;13.95;12.1;;;;;;;3.97;79.56641;94853.6;;;;
2019/05/05 05:38:58;;;;;;;13.95;12.1;;;;;;;3.97;79.56641;94853.6;;;;
2019/05/05 05:40:05;;;;;;;13.95;12.1;;;;;;;3.97;79.56641;94853.6;;;;
2019/05/05 05:41:11;;;;;;;13.95;12.1;;;;;;;3.97;79.56641;94853.6;;;;
2019/05/05 05:42:12;;;;;;;13.95;12.1;;;;;;;3.97;79.56641;94853.6;;;;
2019/05/05 05:43:16;;;;;;;13.95;12.1;;;;;;;3.97;79.56641;94853.6;;;;
2019/05/05 05:49:30;;;;;;;13.75;12.05;;;;;;;4.24;79.35254;94868.17;;;;
2019/05/05 05:50:36;;;;;;;13.75;12.05;;;;;;;4.24;79.35254;94868.17;;;;
2019/05/05 05:51:37;;;;;;;13.75;12.05;;;;;;;4.24;79.35254;94868.17;;;;
2019/05/05 05:52:38;;;;;;;13.75;12.05;;;;;;;4.24;79.35254;94868.17;;;;
2019/05/05 05:53:39;;;;;;;13.75;12.05;;;;;;;4.24;79.35254;94868.17;;;;
2019/05/05 05:54:41;;;;;;;14.3;12.8;;;;;;;4.78;78.93457;94880.72;;;;
2019/05/05 05:55:42;;;;;;;14.3;12.8;;;;;;;4.78;78.93457;94880.72;;;;
2019/05/05 05:56:43;;;;;;;14.3;12.8;;;;;;;4.78;78.93457;94880.72;;;;
2019/05/05 05:57:44;;;;;;;14.3;12.8;;;;;;;4.78;78.93457;94880.72;;;;
2019/05/05 05:58:45;;;;;;;14.3;12.8;;;;;;;4.78;78.93457;94880.72;;;;
2019/05/05 05:59:46;;;;;;;14.3;12.8;;;;;;;4.78;78.93457;94880.72;;;;
2019/05/05 06:00:47;;;;;;;14.3;12.8;;;;;;;4.78;78.93457;94880.72;;;;
2019/05/05 06:01:49;;;;;;;14.3;12.8;;;;;;;4.78;78.93457;94880.72;;;;
2019/05/05 06:02:50;;;;;;;14.3;12.8;;;;;;;4.78;78.93457;94880.72;;;;
2019/05/05 06:03:51;;;;;;;14.3;12.8;;;;;;;4.78;78.93457;94880.72;;;;
2019/05/05 06:04:52;;;;;;;13.6;12.15;;;;;;;5.2;78.36816;94898.07;;;;
2019/05/05 06:05:53;;;;;;;13.6;12.15;;;;;;;5.2;78.36816;94898.07;;;;
2019/05/05 06:06:54;;;;;;;13.6;12.15;;;;;;;5.2;78.36816;94898.07;;;;
2019/05/05 06:07:55;;;;;;;13.6;12.15;;;;;;;5.2;78.36816;94898.07;;;;
2019/05/05 06:08:56;;;;;;;13.6;12.15;;;;;;;5.2;78.36816;94898.07;;;;
2019/05/05 06:09:57;;;;;;;13.6;12.15;;;;;;;5.2;78.36816;94898.07;;;;
2019/05/05 06:10:58;;;;;;;13.6;12.15;;;;;;;5.2;78.36816;94898.07;;;;
2019/05/05 06:11:59;;;;;;;13.6;12.15;;;;;;;5.2;78.36816;94898.07;;;;
2019/05/05 06:13:00;;;;;;;13.6;12.15;;;;;;;5.2;78.36816;94898.07;;;;